.
WxDataArchive / Data Records for 2006-06-29
2006-06-28 June 2006 2006-06-30

Data Records for Thursday, 29 June 2006

Time	Temp	Chill	HIndex	Humid	Dewpt	 Wind 	HiWind	WindDir	Rain 	Barom 
-----	----	-----	------	-----	-----	------	------	-------	-----	----- 
00:00	62.1	62.1	62.1	88	58.5	0	0	---	0.00	30.012 
00:05	62.0	62.0	62.0	88	58.4	0	0	---	0.00	30.012 
00:10	61.6	61.6	61.6	88	58.0	0	0	---	0.00	30.012 
00:15	61.6	61.6	61.6	90	58.6	0	1	248	0.00	30.009 
00:20	61.5	61.5	61.5	90	58.5	0	0	---	0.00	30.009 
00:25	61.3	61.3	61.3	90	58.3	0	0	---	0.00	30.009 
00:30	61.0	61.0	61.0	91	58.4	0	0	---	0.00	30.015 
00:35	60.9	60.9	60.9	91	58.3	0	0	---	0.00	30.015 
00:40	60.9	60.9	60.9	92	58.6	0	0	---	0.00	30.015 
00:45	60.7	60.7	60.7	92	58.4	0	0	---	0.00	30.021 
00:50	60.5	60.5	60.5	92	58.2	0	0	---	0.00	30.021 
00:55	60.4	60.4	60.4	92	58.1	0	0	---	0.00	30.021 
01:00	60.2	60.2	60.2	92	57.9	0	0	---	0.00	30.021 
01:05	60.1	60.1	60.1	92	57.8	0	0	---	0.00	30.021 
01:10	59.9	59.9	59.9	92	57.6	0	0	---	0.00	30.021 
01:15	59.8	59.8	59.8	92	57.5	0	0	---	0.00	30.021 
01:20	59.6	59.6	59.6	92	57.3	0	0	---	0.00	30.021 
01:25	59.5	59.5	59.5	92	57.2	0	0	---	0.00	30.021 
01:30	59.5	59.5	59.5	93	57.5	0	0	---	0.00	30.022 
01:35	59.3	59.3	59.3	93	57.3	0	0	---	0.00	30.022 
01:40	59.3	59.3	59.3	93	57.3	0	0	---	0.00	30.022 
01:45	59.2	59.2	59.2	93	57.2	0	0	---	0.00	30.024 
01:50	59.0	59.0	59.0	93	57.0	0	0	---	0.00	30.024 
01:55	59.0	59.0	59.0	93	57.0	0	0	---	0.00	30.024 
02:00	59.0	59.0	59.0	93	57.0	0	0	---	0.00	30.025 
02:05	58.9	58.9	58.9	93	56.9	0	0	---	0.00	30.025 
02:10	58.7	58.7	58.7	93	56.7	0	0	---	0.00	30.025 
02:15	58.7	58.7	58.7	93	56.7	0	0	---	0.00	30.026 
02:20	58.6	58.6	58.6	94	56.9	0	0	---	0.00	30.026 
02:25	58.6	58.6	58.6	94	56.9	0	0	---	0.00	30.026 
02:30	58.6	58.6	58.6	94	56.9	0	0	---	0.00	30.026 
02:35	58.9	58.9	58.9	94	57.2	0	0	---	0.00	30.026 
02:40	59.0	59.0	59.0	94	57.3	0	2	248	0.00	30.026 
02:45	59.3	59.3	59.3	94	57.6	0	1	248	0.00	30.033 
02:50	59.6	59.6	59.6	92	57.3	0	2	248	0.00	30.033 
02:55	60.1	60.1	60.1	89	56.8	0	1	270	0.00	30.033 
03:00	60.2	60.2	60.2	88	56.6	0	1	270	0.00	30.030 
03:05	60.4	60.4	60.4	86	56.2	0	1	270	0.00	30.030 
03:10	60.5	60.5	60.5	85	56.0	0	1	292	0.00	30.030 
03:15	60.7	60.7	60.7	85	56.2	0	1	292	0.00	30.030 
03:20	60.7	60.7	60.7	84	55.8	0	1	292	0.00	30.030 
03:25	60.7	60.7	60.7	84	55.8	0	0	---	0.00	30.030 
03:30	60.7	60.7	60.7	84	55.8	0	0	---	0.00	30.022 
03:35	60.5	60.5	60.5	84	55.6	0	0	---	0.00	30.022 
03:40	60.5	60.5	60.5	84	55.6	0	0	---	0.00	30.022 
03:45	60.4	60.4	60.4	85	55.9	0	0	---	0.00	30.014 
03:50	60.2	60.2	60.2	86	56.0	0	0	---	0.00	30.014 
03:55	60.2	60.2	60.2	85	55.7	0	0	---	0.00	30.014 
04:00	60.1	60.1	60.1	86	55.9	0	0	---	0.00	30.005 
04:05	59.9	59.9	59.9	86	55.7	0	1	292	0.00	30.005 
04:10	59.9	59.9	59.9	86	55.7	0	0	---	0.00	30.005 
04:15	59.8	59.8	59.8	86	55.6	0	1	292	0.00	30.012 
04:20	59.6	59.6	59.6	87	55.7	0	1	292	0.00	30.012 
04:25	59.5	59.5	59.5	87	55.6	0	1	292	0.00	30.012 
04:30	59.5	59.5	59.5	87	55.6	0	0	---	0.00	30.027 
04:35	59.5	59.5	59.5	86	55.3	0	0	---	0.00	30.027 
04:40	59.5	59.5	59.5	86	55.3	0	0	---	0.00	30.027 
04:45	59.3	59.3	59.3	86	55.1	0	0	---	0.00	30.031 
04:50	59.2	59.2	59.2	86	55.0	0	0	---	0.00	30.031 
04:55	59.0	59.0	59.0	87	55.1	0	0	---	0.00	30.031 
05:00	58.9	58.9	58.9	87	55.0	0	0	---	0.00	30.033 
05:05	58.7	58.7	58.7	87	54.8	0	0	---	0.00	30.033 
05:10	58.6	58.6	58.6	87	54.7	0	0	---	0.00	30.033 
05:15	58.4	58.4	58.4	87	54.5	0	0	---	0.00	30.038 
05:20	58.3	58.3	58.3	87	54.4	0	0	---	0.00	30.038 
05:25	58.0	58.0	58.0	88	54.5	0	0	---	0.00	30.038 
05:30	57.8	57.8	57.8	88	54.3	0	0	---	0.00	30.042 
05:35	57.6	57.6	57.6	88	54.1	0	0	---	0.00	30.042 
05:40	57.3	57.3	57.3	88	53.8	0	0	---	0.00	30.042 
05:45	57.2	57.2	57.2	88	53.7	0	0	---	0.00	30.049 
05:50	57.0	57.0	57.0	88	53.5	0	0	---	0.00	30.049 
05:55	56.9	56.9	56.9	88	53.4	0	0	---	0.00	30.049 
06:00	56.7	56.7	56.7	88	53.2	0	0	---	0.00	30.053 
06:05	56.6	56.6	56.6	88	53.1	0	0	---	0.00	30.053 
06:10	56.5	56.5	56.5	88	53.0	0	0	---	0.00	30.053 
06:15	56.3	56.3	56.3	88	52.8	0	0	---	0.00	30.054 
06:20	56.0	56.0	56.0	88	52.5	0	0	---	0.00	30.054 
06:25	55.9	55.9	55.9	89	52.7	0	0	---	0.00	30.054 
06:30	55.7	55.7	55.7	89	52.5	0	0	---	0.00	30.061 
06:35	55.6	55.6	55.6	90	52.7	0	0	---	0.00	30.061 
06:40	55.4	55.4	55.4	90	52.5	0	0	---	0.00	30.061 
06:45	55.4	55.4	55.4	91	52.8	0	0	---	0.00	30.062 
06:50	55.4	55.4	55.4	91	52.8	0	0	---	0.00	30.062 
06:55	55.6	55.6	55.6	92	53.3	0	0	---	0.00	30.062 
07:00	56.0	56.0	56.0	92	53.7	0	1	292	0.00	30.068 
07:05	56.3	56.3	56.3	91	53.7	0	1	292	0.00	30.068 
07:10	56.7	56.7	56.7	90	53.8	0	1	292	0.00	30.068 
07:15	57.2	57.2	57.2	89	54.0	0	1	292	0.00	30.065 
07:20	57.6	57.6	57.6	88	54.1	0	1	292	0.00	30.065 
07:25	58.0	58.0	58.0	87	54.1	0	1	292	0.00	30.065 
07:30	58.4	58.4	58.4	86	54.2	0	0	---	0.00	30.066 
07:35	58.9	58.9	58.9	86	54.7	0	1	292	0.00	30.066 
07:40	59.3	59.3	59.3	84	54.5	0	1	292	0.00	30.066 
07:45	59.6	59.6	59.6	84	54.8	0	1	292	0.00	30.067 
07:50	60.1	60.1	60.1	83	54.9	0	1	292	0.00	30.067 
07:55	60.4	60.4	60.4	82	54.9	0	1	292	0.00	30.067 
08:00	60.7	60.7	60.7	82	55.2	0	1	292	0.00	30.074 
08:05	61.2	61.2	61.2	81	55.3	0	1	292	0.00	30.074 
08:10	61.6	61.6	61.6	80	55.4	0	3	292	0.00	30.074 
08:15	62.0	62.0	62.0	80	55.8	0	1	292	0.00	30.079 
08:20	62.4	62.4	62.4	78	55.4	0	2	292	0.00	30.079 
08:25	62.9	62.9	62.9	78	55.9	0	1	292	0.00	30.079 
08:30	63.1	63.1	63.1	76	55.4	0	2	338	0.00	30.082 
08:35	63.4	63.4	63.4	75	55.3	1	3	338	0.00	30.082 
08:40	63.7	63.7	63.7	75	55.6	0	2	315	0.00	30.082 
08:45	63.9	63.9	63.9	74	55.4	1	2	292	0.00	30.083 
08:50	64.0	64.0	64.0	73	55.2	1	2	270	0.00	30.083 
08:55	64.3	64.3	64.3	71	54.7	1	2	292	0.00	30.083 
09:00	64.8	64.8	64.8	71	55.2	0	1	292	0.00	30.086 
09:05	65.0	65.0	65.0	67	53.8	1	2	315	0.00	30.086 
09:10	65.2	65.2	65.2	71	55.6	1	2	315	0.00	30.086 
09:15	65.6	65.6	65.6	69	55.1	0	2	315	0.00	30.083 
09:20	66.3	66.3	66.3	68	55.4	1	4	315	0.00	30.083 
09:25	66.6	66.6	66.6	68	55.7	1	4	248	0.00	30.083 
09:30	66.9	66.9	66.9	65	54.7	1	3	292	0.00	30.090 
09:35	67.1	67.1	67.1	65	54.9	0	2	315	0.00	30.090 
09:40	67.4	67.4	67.4	64	54.8	1	4	315	0.00	30.090 
09:45	67.4	67.4	67.4	62	53.9	1	3	315	0.00	30.089 
09:50	67.4	67.4	67.4	63	54.4	1	3	292	0.00	30.089 
09:55	67.9	67.9	67.9	66	56.1	1	3	292	0.00	30.089 
10:00	68.4	68.4	68.4	63	55.3	2	3	248	0.00	30.092 
10:05	68.8	68.8	68.8	63	55.7	1	3	248	0.00	30.092 
10:10	68.9	68.9	68.9	63	55.8	2	4	270	0.00	30.092 
10:15	68.9	68.9	68.9	61	54.9	1	4	315	0.00	30.093 
10:20	69.3	69.3	69.3	62	55.7	1	3	292	0.00	30.093 
10:25	69.9	69.9	69.9	62	56.3	1	2	315	0.00	30.093 
10:30	70.1	70.1	70.1	59	55.1	1	4	315	0.00	30.092 
10:35	70.1	70.1	70.1	59	55.1	2	4	292	0.00	30.092 
10:40	70.1	70.1	70.1	60	55.6	2	4	292	0.00	30.092 
10:45	70.1	70.1	70.1	61	56.0	2	5	315	0.00	30.092 
10:50	70.3	70.3	70.3	59	55.3	2	3	270	0.00	30.092 
10:55	70.4	70.4	70.4	59	55.4	1	3	315	0.00	30.092 
11:00	71.3	71.3	71.3	59	56.2	1	3	315	0.00	30.091 
11:05	71.5	71.5	71.5	61	57.3	1	4	270	0.00	30.091 
11:10	71.8	71.8	71.8	59	56.7	1	2	0	0.00	30.091 
11:15	72.1	72.1	72.1	61	57.9	1	3	270	0.00	30.088 
11:20	72.5	72.5	72.5	53	54.4	1	4	315	0.00	30.088 
11:25	72.7	72.7	72.7	54	55.1	2	5	270	0.00	30.088 
11:30	72.8	72.8	72.8	53	54.7	1	4	292	0.00	30.091 
11:35	73.0	73.0	73.0	54	55.4	1	5	315	0.00	30.091 
11:40	73.0	73.0	73.0	53	54.8	2	4	292	0.00	30.091 
11:45	73.0	73.0	73.0	51	53.8	2	6	315	0.00	30.092 
11:50	73.7	73.7	73.7	55	56.5	1	4	270	0.00	30.092 
11:55	74.4	74.4	74.4	50	54.5	1	3	292	0.00	30.092 
12:00	74.2	74.2	74.2	50	54.3	1	4	315	0.00	30.089 
12:05	74.6	74.6	74.6	50	54.7	1	4	0	0.00	30.089 
12:10	74.4	74.4	74.4	53	56.1	2	9	270	0.00	30.089 
12:15	74.6	74.6	74.6	47	53.0	2	5	248	0.00	30.092 
12:20	74.6	74.6	74.6	49	54.2	2	5	338	0.00	30.092 
12:25	74.9	74.9	74.9	48	53.9	2	5	292	0.00	30.092 
12:30	75.1	75.1	77.7	49	54.6	1	3	315	0.00	30.092 
12:35	75.1	75.1	77.7	46	52.9	2	5	315	0.00	30.092 
12:40	74.9	74.9	74.9	51	55.5	2	4	270	0.00	30.092 
12:45	75.4	75.4	77.8	47	53.7	1	2	270	0.00	30.091 
12:50	76.0	76.0	78.0	47	54.3	1	4	248	0.00	30.091 
12:55	75.8	75.8	78.0	48	54.7	2	4	315	0.00	30.091 
13:00	76.1	76.1	78.1	47	54.4	1	3	315	0.00	30.086 
13:05	75.1	75.1	77.7	46	52.9	2	4	292	0.00	30.086 
13:10	75.1	75.1	77.6	44	51.7	1	4	292	0.00	30.086 
13:15	74.6	74.6	74.6	46	52.4	1	3	292	0.00	30.089 
13:20	75.1	75.1	77.7	46	52.9	1	4	270	0.00	30.089 
13:25	76.1	76.1	78.0	45	53.2	2	5	292	0.00	30.089 
13:30	76.5	76.5	78.1	43	52.3	2	5	315	0.00	30.086 
13:35	77.0	77.0	78.3	42	52.1	2	5	270	0.00	30.086 
13:40	76.8	76.8	78.4	48	55.6	2	5	248	0.00	30.086 
13:45	77.2	77.2	78.3	40	51.0	2	4	292	0.00	30.086 
13:50	77.4	77.4	78.6	43	53.1	1	4	338	0.00	30.086 
13:55	77.7	77.7	78.8	45	54.6	1	3	0	0.00	30.086 
14:00	77.9	77.9	78.8	42	52.9	2	5	270	0.00	30.086 
14:05	77.6	77.6	78.7	43	53.3	2	4	315	0.00	30.086 
14:10	77.6	77.6	78.6	42	52.7	2	5	270	0.00	30.086 
14:15	76.8	76.8	78.2	41	51.3	1	3	315	0.00	30.085 
14:20	76.3	76.3	78.0	43	52.1	1	3	315	0.00	30.085 
14:25	77.2	77.2	78.5	44	53.6	1	4	22	0.00	30.085 
14:30	76.8	76.8	78.3	43	52.6	1	3	292	0.00	30.084 
14:35	76.3	76.3	78.1	45	53.4	2	4	338	0.00	30.084 
14:40	77.0	77.0	78.4	43	52.8	2	5	270	0.00	30.084 
14:45	77.6	77.6	78.7	43	53.3	1	3	315	0.00	30.079 
14:50	77.4	77.4	78.6	43	53.1	1	4	338	0.00	30.079 
14:55	76.5	76.5	78.2	44	52.9	0	2	22	0.00	30.079 
15:00	75.8	75.8	77.8	43	51.7	1	3	315	0.00	30.076 
15:05	76.7	76.7	78.2	43	52.5	2	5	292	0.00	30.076 
15:10	77.4	77.4	78.5	42	52.5	2	4	270	0.00	30.076 
15:15	78.1	78.1	78.8	41	52.5	2	3	270	0.00	30.073 
15:20	77.4	77.4	78.5	42	52.5	2	5	338	0.00	30.073 
15:25	78.3	78.3	78.9	40	52.0	1	3	315	0.00	30.073 
15:30	78.5	78.5	79.1	41	52.8	3	6	315	0.00	30.073 
15:35	78.1	78.1	79.0	44	54.4	2	5	315	0.00	30.073 
15:40	79.0	79.0	79.5	43	54.6	2	5	270	0.00	30.073 
15:45	78.8	78.8	79.1	39	51.7	2	5	292	0.00	30.069 
15:50	77.9	77.9	78.7	41	52.3	2	3	248	0.00	30.069 
15:55	78.1	78.1	78.7	39	51.1	2	4	270	0.00	30.069 
16:00	77.9	77.9	78.6	39	50.9	2	6	248	0.00	30.068 
16:05	77.2	77.2	78.5	45	54.2	1	3	270	0.00	30.068 
16:10	77.6	77.6	78.7	43	53.3	1	3	248	0.00	30.068 
16:15	78.5	78.5	79.1	41	52.8	1	3	338	0.00	30.063 
16:20	78.6	78.6	79.0	39	51.5	2	5	270	0.00	30.063 
16:25	78.5	78.5	79.0	40	52.1	2	4	315	0.00	30.063 
16:30	78.6	78.6	79.2	42	53.6	1	3	292	0.00	30.060 
16:35	79.2	79.2	79.5	42	54.1	1	2	315	0.00	30.060 
16:40	79.6	79.6	79.7	40	53.1	1	3	315	0.00	30.060 
16:45	79.0	79.0	79.2	38	51.2	2	5	315	0.00	30.060 
16:50	77.9	77.9	78.7	40	51.6	2	4	270	0.00	30.060 
16:55	76.8	76.8	78.2	42	51.9	1	3	248	0.00	30.060 
17:00	76.8	76.8	78.2	42	51.9	1	3	292	0.00	30.061 
17:05	76.7	76.7	78.1	41	51.2	1	5	270	0.00	30.061 
17:10	76.3	76.3	78.0	42	51.5	0	2	22	0.00	30.061 
17:15	76.1	76.1	77.9	41	50.7	1	2	338	0.00	30.061 
17:20	76.0	76.0	77.8	40	49.9	1	4	315	0.00	30.061 
17:25	76.8	76.8	78.2	42	51.9	1	4	270	0.00	30.061 
17:30	77.7	77.7	78.3	36	48.6	2	4	338	0.00	30.056 
17:35	77.7	77.7	78.5	38	50.0	1	2	315	0.00	30.056 
17:40	77.2	77.2	78.2	38	49.6	1	2	315	0.00	30.056 
17:45	77.6	77.6	78.5	39	50.7	1	4	270	0.00	30.055 
17:50	77.9	77.9	78.6	38	50.2	2	4	292	0.00	30.055 
17:55	78.6	78.6	78.7	35	48.6	1	3	292	0.00	30.055 
18:00	78.5	78.5	78.7	35	48.5	1	4	292	0.00	30.049 
18:05	77.6	77.6	78.3	36	48.5	1	3	315	0.00	30.049 
18:10	76.7	76.7	78.0	37	48.4	1	2	270	0.00	30.049 
18:15	76.7	76.7	78.1	40	50.5	0	2	270	0.00	30.050 
18:20	76.8	76.8	78.1	39	49.9	1	3	338	0.00	30.050 
18:25	77.4	77.4	78.4	39	50.5	1	3	292	0.00	30.050 
18:30	78.1	78.1	78.6	37	49.7	1	3	270	0.00	30.047 
18:35	77.4	77.4	78.2	36	48.3	2	4	315	0.00	30.047 
18:40	77.0	77.0	78.0	35	47.2	1	3	292	0.00	30.047 
18:45	76.8	76.8	78.0	37	48.5	1	2	292	0.00	30.047 
18:50	77.0	77.0	78.0	36	48.0	1	3	270	0.00	30.047 
18:55	77.0	77.0	78.0	36	48.0	1	2	292	0.00	30.047 
19:00	76.8	76.8	77.9	35	47.1	2	5	292	0.00	30.047 
19:05	76.7	76.7	78.0	38	49.2	1	3	0	0.00	30.047 
19:10	76.5	76.5	77.8	35	46.8	0	2	0	0.00	30.047 
19:15	76.5	76.5	77.7	33	45.2	0	2	22	0.00	30.045 
19:20	76.3	76.3	77.7	35	46.6	0	1	22	0.00	30.045 
19:25	76.3	76.3	77.7	35	46.6	1	3	270	0.00	30.045 
19:30	76.3	76.3	77.7	36	47.4	0	1	270	0.00	30.048 
19:35	76.1	76.1	77.6	35	46.4	0	2	292	0.00	30.048 
19:40	76.1	76.1	77.7	37	47.9	1	2	292	0.00	30.048 
19:45	75.8	75.8	77.6	36	46.9	1	3	315	0.00	30.046 
19:50	75.8	75.8	77.6	36	46.9	1	2	315	0.00	30.046 
19:55	75.4	75.4	77.4	35	45.8	1	4	292	0.00	30.046 
20:00	75.3	75.3	77.5	37	47.2	0	2	292	0.00	30.045 
20:05	75.1	75.1	77.4	37	47.0	0	2	292	0.00	30.045 
20:10	74.9	74.9	74.9	39	48.3	0	1	292	0.00	30.045 
20:15	74.6	74.6	74.6	40	48.7	0	1	292	0.00	30.042 
20:20	74.2	74.2	74.2	41	49.0	0	1	292	0.00	30.042 
20:25	73.9	73.9	73.9	42	49.3	0	0	---	0.00	30.042 
20:30	73.5	73.5	73.5	42	49.0	0	1	292	0.00	30.043 
20:35	73.2	73.2	73.2	43	49.3	0	0	---	0.00	30.043 
20:40	72.8	72.8	72.8	44	49.6	0	0	---	0.00	30.043 
20:45	72.7	72.7	72.7	45	50.1	0	0	---	0.00	30.044 
20:50	72.1	72.1	72.1	46	50.2	0	0	---	0.00	30.044 
20:55	71.8	71.8	71.8	46	49.9	0	0	---	0.00	30.044 
21:00	71.6	71.6	71.6	47	50.3	0	0	---	0.00	30.046 
21:05	71.3	71.3	71.3	47	50.0	0	0	---	0.00	30.046 
21:10	70.9	70.9	70.9	48	50.2	0	0	---	0.00	30.046 
21:15	70.6	70.6	70.6	50	51.0	0	0	---	0.00	30.046 
21:20	70.1	70.1	70.1	50	50.6	0	0	---	0.00	30.046 
21:25	69.8	69.8	69.8	51	50.8	0	0	---	0.00	30.046 
21:30	69.4	69.4	69.4	51	50.5	0	0	---	0.00	30.048 
21:35	68.9	68.9	68.9	53	51.1	0	0	---	0.00	30.048 
21:40	68.3	68.3	68.3	54	51.0	0	0	---	0.00	30.048 
21:45	67.6	67.6	67.6	56	51.3	0	0	---	0.00	30.056 
21:50	67.1	67.1	67.1	58	51.8	0	0	---	0.00	30.056 
21:55	66.4	66.4	66.4	58	51.2	0	0	---	0.00	30.056 
22:00	66.0	66.0	66.0	61	52.2	0	0	---	0.00	30.061 
22:05	65.6	65.6	65.6	61	51.8	0	0	---	0.00	30.061 
22:10	65.2	65.2	65.2	62	51.8	0	0	---	0.00	30.061 
22:15	64.7	64.7	64.7	62	51.4	0	0	---	0.00	30.070 
22:20	64.3	64.3	64.3	64	51.9	0	0	---	0.00	30.070 
22:25	64.0	64.0	64.0	65	52.0	0	0	---	0.00	30.070 
22:30	63.5	63.5	63.5	65	51.5	0	0	---	0.00	30.076 
22:35	63.2	63.2	63.2	66	51.6	0	0	---	0.00	30.076 
22:40	62.9	62.9	62.9	67	51.8	0	0	---	0.00	30.076 
22:45	62.7	62.7	62.7	68	52.0	0	0	---	0.00	30.077 
22:50	62.4	62.4	62.4	69	52.1	0	0	---	0.00	30.077 
22:55	62.3	62.3	62.3	69	52.0	0	0	---	0.00	30.077 
23:00	62.1	62.1	62.1	70	52.2	0	0	---	0.00	30.080 
23:05	61.8	61.8	61.8	71	52.3	0	0	---	0.00	30.080 
23:10	61.6	61.6	61.6	71	52.1	0	0	---	0.00	30.080 
23:15	61.5	61.5	61.5	71	52.0	0	0	---	0.00	30.077 
23:20	61.3	61.3	61.3	71	51.8	0	0	---	0.00	30.077 
23:25	61.2	61.2	61.2	72	52.1	0	0	---	0.00	30.077 
23:30	60.9	60.9	60.9	73	52.2	0	0	---	0.00	30.078 
23:35	60.7	60.7	60.7	73	52.0	0	0	---	0.00	30.078 
23:40	60.5	60.5	60.5	73	51.8	0	0	---	0.00	30.078 
23:45	60.4	60.4	60.4	73	51.7	0	0	---	0.00	30.077 
23:50	60.2	60.2	60.2	74	51.9	0	0	---	0.00	30.077 
23:55	60.1	60.1	60.1	74	51.8	0	0	---	0.00	30.077 

CoCoRaHS
IN-AL-39
A2 Web Hosting
Creative Commons License
GoDaddy
Look for:

loaded 2017-12-13 20:00:24 • last modified 2010-11-18 10:43:29
Privacy PolicyDisclaimer
• wx.awcolley.com is powered by PmWiki v.2002016 •
• all content (unless otherwise noted) © 2017 A W Colley